createdAt,value
2018-12-21T00:01:55.364Z,44.70
2018-12-21T00:04:24.102Z,46.33
2018-12-21T00:06:52.873Z,46.63
2018-12-21T00:09:21.728Z,46.93
2018-12-21T00:11:50.647Z,47.70
2018-12-21T00:14:19.374Z,45.73
2018-12-21T00:16:48.077Z,49.43
2018-12-21T00:19:16.801Z,46.27
2018-12-21T00:21:45.542Z,43.70
2018-12-21T00:24:14.280Z,47.87
2018-12-21T00:26:42.992Z,45.00
2018-12-21T00:29:11.721Z,44.67
2018-12-21T00:31:45.670Z,45.10
2018-12-21T00:34:19.443Z,44.07
2018-12-21T00:36:53.251Z,41.73
2018-12-21T00:39:27.123Z,43.67
2018-12-21T00:41:55.495Z,41.60
2018-12-21T00:44:30.622Z,45.27
2018-12-21T00:47:02.004Z,45.73
2018-12-21T00:49:30.947Z,45.53
2018-12-21T00:51:59.740Z,43.03
2018-12-21T00:54:28.518Z,41.90
2018-12-21T00:56:57.251Z,45.87
2018-12-21T00:59:26.512Z,42.37
2018-12-21T01:01:55.279Z,42.20
2018-12-21T01:04:24.051Z,44.97
2018-12-21T01:06:52.842Z,40.50
2018-12-21T01:09:21.803Z,44.63
2018-12-21T01:11:52.321Z,43.00
2018-12-21T01:14:21.018Z,43.13
2018-12-21T01:16:49.785Z,44.13
2018-12-21T01:19:19.439Z,42.63
2018-12-21T01:21:48.204Z,44.40
2018-12-21T01:24:16.956Z,39.97
2018-12-21T01:26:45.652Z,42.63
2018-12-21T01:29:14.450Z,41.73
2018-12-21T01:31:43.615Z,44.27
2018-12-21T01:34:12.371Z,42.87
2018-12-21T01:36:41.937Z,42.80
2018-12-21T01:39:10.736Z,41.13
2018-12-21T01:41:39.486Z,46.00
2018-12-21T01:44:08.246Z,40.30
2018-12-21T01:46:37.056Z,41.13
2018-12-21T01:49:05.752Z,42.20
2018-12-21T01:51:34.483Z,38.27
2018-12-21T01:54:03.833Z,40.43
2018-12-21T01:56:32.574Z,37.83
2018-12-21T01:59:01.318Z,39.30
2018-12-21T02:01:30.048Z,39.63
2018-12-21T02:03:58.753Z,37.97
2018-12-21T02:06:27.555Z,37.10
2018-12-21T02:08:56.277Z,39.13
2018-12-21T02:11:25.032Z,36.53
2018-12-21T02:13:53.835Z,40.87
2018-12-21T02:16:22.576Z,39.43
2018-12-21T02:18:51.271Z,45.23
2018-12-21T02:21:20.007Z,42.10
2018-12-21T02:23:48.741Z,44.17
2018-12-21T02:26:17.560Z,42.17
2018-12-21T02:28:46.384Z,44.97
2018-12-21T02:31:15.120Z,41.27
2018-12-21T02:33:43.823Z,40.73
2018-12-21T02:36:12.533Z,42.97
2018-12-21T02:38:41.248Z,41.30
2018-12-21T02:41:10.110Z,44.83
2018-12-21T02:43:38.836Z,42.83
2018-12-21T02:46:07.553Z,42.93
2018-12-21T02:48:36.310Z,42.13
2018-12-21T02:51:05.452Z,41.57
2018-12-21T02:53:34.107Z,41.93
2018-12-21T02:56:02.818Z,41.77
2018-12-21T02:58:31.523Z,42.27
2018-12-21T03:01:00.295Z,42.03
2018-12-21T03:03:28.988Z,41.17
2018-12-21T03:05:57.675Z,41.13
2018-12-21T03:08:26.433Z,45.00
2018-12-21T03:10:55.204Z,40.73
2018-12-21T03:13:23.937Z,37.67
2018-12-21T03:15:52.663Z,40.40
2018-12-21T03:18:21.357Z,38.67
2018-12-21T03:20:50.158Z,38.97
2018-12-21T03:23:18.998Z,39.93
2018-12-21T03:25:47.689Z,42.60
2018-12-21T03:28:16.423Z,42.10
2018-12-21T03:30:45.190Z,41.70
2018-12-21T03:33:14.179Z,42.43
2018-12-21T03:35:43.019Z,41.67
2018-12-21T03:38:11.826Z,39.13
2018-12-21T03:40:40.641Z,39.80
2018-12-21T03:43:09.392Z,43.27
2018-12-21T03:45:38.179Z,39.77
2018-12-21T03:48:06.955Z,37.10
2018-12-21T03:50:35.711Z,40.10
2018-12-21T03:53:04.544Z,34.67
2018-12-21T03:55:33.254Z,34.97
2018-12-21T03:58:01.984Z,35.93
2018-12-21T04:00:30.787Z,33.70
2018-12-21T04:02:59.480Z,35.27
2018-12-21T04:05:28.250Z,35.23
2018-12-21T04:07:57.009Z,36.83
2018-12-21T04:10:25.743Z,32.30
2018-12-21T04:12:54.462Z,33.93
2018-12-21T04:15:23.177Z,32.23
2018-12-21T04:17:51.953Z,33.23
2018-12-21T04:20:20.839Z,33.43
2018-12-21T04:22:49.793Z,35.40
2018-12-21T04:25:18.530Z,33.20
2018-12-21T04:27:47.246Z,34.10
2018-12-21T04:30:15.959Z,32.20
2018-12-21T04:32:44.637Z,32.43
2018-12-21T04:35:13.700Z,34.03
2018-12-21T04:37:42.693Z,33.43
2018-12-21T04:40:11.608Z,34.07
2018-12-21T04:42:40.391Z,35.67
2018-12-21T04:45:09.678Z,34.60
2018-12-21T04:47:38.425Z,34.10
2018-12-21T04:50:09.196Z,35.43
2018-12-21T04:52:43.245Z,37.90
2018-12-21T04:55:08.736Z,36.10
2018-12-21T04:57:37.490Z,35.90
2018-12-21T05:00:10.771Z,34.50
2018-12-21T05:02:39.937Z,34.63
2018-12-21T05:05:08.659Z,35.27
2018-12-21T05:07:37.897Z,34.67
2018-12-21T05:10:07.572Z,35.10
2018-12-21T05:12:36.309Z,34.87
2018-12-21T05:15:06.071Z,35.63
2018-12-21T05:17:34.832Z,34.13
2018-12-21T05:20:03.629Z,35.57
2018-12-21T05:22:32.386Z,31.83
2018-12-21T05:25:01.140Z,33.13
2018-12-21T05:27:29.842Z,32.53
2018-12-21T05:29:58.569Z,35.00
2018-12-21T05:32:27.295Z,36.00
2018-12-21T05:34:55.987Z,36.23
2018-12-21T05:37:24.699Z,37.00
2018-12-21T05:39:53.370Z,36.23
2018-12-21T05:42:22.127Z,33.37
2018-12-21T05:44:50.807Z,34.67
2018-12-21T05:47:19.516Z,36.23
2018-12-21T05:49:48.262Z,35.80
2018-12-21T05:52:16.950Z,37.13
2018-12-21T05:54:45.694Z,36.90
2018-12-21T05:57:14.499Z,37.47
2018-12-21T05:59:43.376Z,37.57
2018-12-21T06:02:12.097Z,38.17
2018-12-21T06:04:40.885Z,41.07
2018-12-21T06:07:09.548Z,43.90
2018-12-21T06:09:38.349Z,43.77
2018-12-21T06:12:07.094Z,42.50
2018-12-21T06:14:35.835Z,44.10
2018-12-21T06:17:04.600Z,42.80
2018-12-21T06:19:33.347Z,41.50
2018-12-21T06:22:02.770Z,42.77
2018-12-21T06:24:32.002Z,43.93
2018-12-21T06:27:00.731Z,42.17
2018-12-21T06:29:29.440Z,43.80
2018-12-21T06:31:58.184Z,42.57
2018-12-21T06:34:26.959Z,42.67
2018-12-21T06:36:55.732Z,42.47
2018-12-21T06:39:24.537Z,39.30
2018-12-21T06:41:53.255Z,39.73
2018-12-21T06:44:21.926Z,38.80
2018-12-21T06:46:50.662Z,39.57
2018-12-21T06:49:19.839Z,39.93
2018-12-21T06:51:48.534Z,40.87
2018-12-21T06:54:17.262Z,42.80
2018-12-21T06:56:45.968Z,42.37
2018-12-21T06:59:14.678Z,43.17
2018-12-21T07:01:43.459Z,42.87
2018-12-21T07:04:12.162Z,42.93
2018-12-21T07:06:40.916Z,43.87
2018-12-21T07:09:09.837Z,44.13
2018-12-21T07:11:39.636Z,41.47
2018-12-21T07:14:08.355Z,43.53
2018-12-21T07:16:37.285Z,45.30
2018-12-21T07:19:06.091Z,42.30
2018-12-21T07:21:34.910Z,42.27
2018-12-21T07:24:03.703Z,43.60
2018-12-21T07:26:32.484Z,42.63
2018-12-21T07:29:01.162Z,43.43
2018-12-21T07:31:29.879Z,43.00
2018-12-21T07:33:58.594Z,44.33
2018-12-21T07:36:27.283Z,43.30
2018-12-21T07:38:56.447Z,48.23
2018-12-21T07:41:25.228Z,45.60
2018-12-21T07:43:53.932Z,47.80
2018-12-21T07:46:22.775Z,47.50
2018-12-21T07:48:51.594Z,51.43
2018-12-21T07:51:20.349Z,51.13
2018-12-21T07:53:49.107Z,48.27
2018-12-21T07:56:17.821Z,50.43
2018-12-21T07:58:46.579Z,51.37
2018-12-21T08:01:15.788Z,49.07
2018-12-21T08:03:44.598Z,51.60
2018-12-21T08:06:13.481Z,49.23
2018-12-21T08:08:42.253Z,51.57
2018-12-21T08:11:10.934Z,50.03
2018-12-21T08:13:39.698Z,52.30
2018-12-21T08:16:08.428Z,51.30
2018-12-21T08:18:37.244Z,52.13
2018-12-21T08:21:06.190Z,50.53
2018-12-21T08:23:35.050Z,51.07
2018-12-21T08:26:03.885Z,51.73
2018-12-21T08:28:32.860Z,53.27
2018-12-21T08:31:01.648Z,53.30
2018-12-21T08:33:30.343Z,48.97
2018-12-21T08:35:59.377Z,52.73
2018-12-21T08:38:28.117Z,52.37
2018-12-21T08:40:58.340Z,51.73
2018-12-21T08:43:27.003Z,52.47
2018-12-21T08:45:55.797Z,54.10
2018-12-21T08:48:24.430Z,53.47
2018-12-21T08:50:53.162Z,52.43
2018-12-21T08:53:21.896Z,52.27
2018-12-21T08:55:50.610Z,57.10
2018-12-21T08:58:19.325Z,54.17
2018-12-21T09:00:48.066Z,53.23
2018-12-21T09:03:16.809Z,56.67
2018-12-21T09:08:24.821Z,57.43
2018-12-21T09:10:54.729Z,54.47
2018-12-21T09:13:23.450Z,58.27
2018-12-21T09:15:52.235Z,56.30
2018-12-21T09:18:21.018Z,56.80
2018-12-21T09:20:50.083Z,56.37
2018-12-21T09:23:18.791Z,57.93
2018-12-21T09:25:47.562Z,57.97
2018-12-21T09:28:16.404Z,55.40
2018-12-21T09:30:45.121Z,57.07
2018-12-21T09:33:13.937Z,56.77
2018-12-21T09:35:43.170Z,55.67
2018-12-21T09:38:11.849Z,55.77
2018-12-21T09:40:40.509Z,58.37
2018-12-21T09:43:09.309Z,55.47
2018-12-21T09:45:38.024Z,58.17
2018-12-21T09:48:06.782Z,58.90
2018-12-21T09:50:35.569Z,55.17
2018-12-21T09:53:04.517Z,59.60
2018-12-21T09:55:33.307Z,64.83
2018-12-21T09:58:02.073Z,60.03
2018-12-21T10:00:30.811Z,58.50
2018-12-21T10:03:00.156Z,61.53
2018-12-21T10:05:28.986Z,63.00
2018-12-21T10:07:57.818Z,59.40
2018-12-21T10:10:26.611Z,61.30
2018-12-21T10:12:55.328Z,60.47
2018-12-21T10:15:24.058Z,61.47
2018-12-21T10:17:52.789Z,62.27
2018-12-21T10:20:21.558Z,59.77
2018-12-21T10:22:50.537Z,60.93
2018-12-21T10:25:19.312Z,56.50
2018-12-21T10:27:48.112Z,59.00
2018-12-21T10:30:16.893Z,59.97
2018-12-21T10:32:45.648Z,59.00
2018-12-21T10:35:14.421Z,63.73
2018-12-21T10:37:43.132Z,62.17
2018-12-21T10:40:11.852Z,65.03
2018-12-21T10:42:40.610Z,61.10
2018-12-21T10:45:09.384Z,64.67
2018-12-21T10:47:38.121Z,65.70
2018-12-21T10:50:10.122Z,64.30
2018-12-21T10:52:39.040Z,62.90
2018-12-21T10:55:08.377Z,61.93
2018-12-21T10:57:37.167Z,63.50
2018-12-21T11:00:11.828Z,63.43
2018-12-21T11:02:40.512Z,64.33
2018-12-21T11:05:09.309Z,63.50
2018-12-21T11:07:38.091Z,65.87
2018-12-21T11:10:10.085Z,62.17
2018-12-21T11:12:38.869Z,66.53
2018-12-21T11:15:08.350Z,64.70
2018-12-21T11:17:37.206Z,65.43
2018-12-21T11:20:07.976Z,65.23
2018-12-21T11:22:36.728Z,61.77
2018-12-21T11:25:07.921Z,62.57
2018-12-21T11:27:36.751Z,63.20
2018-12-21T11:30:13.602Z,64.07
2018-12-21T11:32:42.364Z,67.97
2018-12-21T11:35:11.150Z,67.90
2018-12-21T11:37:41.997Z,68.00
2018-12-21T11:40:10.769Z,69.37
2018-12-21T11:42:39.486Z,70.17
2018-12-21T11:45:09.704Z,70.97
2018-12-21T11:47:38.492Z,70.47
2018-12-21T11:50:10.160Z,74.27
2018-12-21T11:52:43.513Z,72.07
2018-12-21T11:55:13.177Z,74.03
2018-12-21T11:57:41.879Z,68.40
2018-12-21T12:00:11.846Z,75.27
2018-12-21T12:02:41.142Z,69.53
2018-12-21T12:05:09.891Z,75.77
2018-12-21T12:07:38.644Z,75.33
2018-12-21T12:10:08.573Z,73.23
2018-12-21T12:12:39.334Z,73.13
2018-12-21T12:15:08.827Z,74.03
2018-12-21T12:17:37.595Z,73.67
2018-12-21T12:20:06.965Z,75.07
2018-12-21T12:22:35.824Z,79.27
2018-12-21T12:25:05.575Z,82.87
2018-12-21T12:27:34.279Z,87.10
2018-12-21T12:30:11.539Z,90.77
2018-12-21T12:32:40.304Z,90.07
2018-12-21T12:35:09.220Z,92.23
2018-12-21T12:37:38.024Z,90.53
2018-12-21T12:40:09.118Z,88.40
2018-12-21T12:42:38.380Z,86.80
2018-12-21T12:45:08.720Z,92.73
2018-12-21T12:47:37.535Z,88.53
2018-12-21T12:50:07.413Z,90.90
2018-12-21T12:52:36.201Z,89.73
2018-12-21T12:55:06.377Z,91.73
2018-12-21T12:57:35.163Z,89.73
2018-12-21T13:00:12.724Z,95.90
2018-12-21T13:02:41.465Z,92.73
2018-12-21T13:05:10.322Z,94.60
2018-12-21T13:07:39.315Z,93.57
2018-12-21T13:10:10.440Z,91.90
2018-12-21T13:12:39.252Z,86.30
2018-12-21T13:15:10.764Z,85.47
2018-12-21T13:17:39.846Z,81.30
2018-12-21T13:20:10.376Z,83.80
2018-12-21T13:22:39.130Z,79.90
2018-12-21T13:25:11.645Z,80.17
2018-12-21T13:27:39.757Z,77.10
2018-12-21T13:30:12.063Z,73.77
2018-12-21T13:32:41.168Z,72.50
2018-12-21T13:35:09.958Z,73.07
2018-12-21T13:37:38.758Z,70.90
2018-12-21T13:40:10.960Z,76.20
2018-12-21T13:42:39.742Z,71.77
2018-12-21T13:45:10.440Z,69.33
2018-12-21T13:47:39.129Z,73.37
2018-12-21T13:50:12.346Z,76.90
2018-12-21T13:52:41.174Z,75.90
2018-12-21T13:55:10.129Z,76.43
2018-12-21T13:57:38.882Z,82.70
2018-12-21T14:00:11.971Z,81.13
2018-12-21T14:02:40.679Z,78.73
2018-12-21T14:05:09.541Z,85.80
2018-12-21T14:07:38.264Z,85.23
2018-12-21T14:10:10.296Z,91.60
2018-12-21T14:12:39.047Z,95.67
2018-12-21T14:15:09.302Z,92.17
2018-12-21T14:17:37.992Z,92.67
2018-12-21T14:20:10.046Z,91.77
2018-12-21T14:22:38.944Z,92.77
2018-12-21T14:25:08.640Z,93.30
2018-12-21T14:27:37.404Z,86.80
2018-12-21T14:30:13.835Z,91.87
2018-12-21T14:32:42.584Z,93.77
2018-12-21T14:35:11.595Z,89.93
2018-12-21T14:37:40.453Z,84.80
2018-12-21T14:40:09.273Z,88.57
2018-12-21T14:42:38.233Z,86.00
2018-12-21T14:45:07.790Z,82.63
2018-12-21T14:47:36.518Z,80.27
2018-12-21T14:50:19.542Z,77.03
2018-12-21T14:52:48.290Z,72.07
2018-12-21T14:55:17.004Z,77.83
2018-12-21T14:57:45.756Z,83.70
2018-12-21T15:00:15.360Z,83.73
2018-12-21T15:02:44.354Z,82.53
2018-12-21T15:05:19.460Z,82.70
2018-12-21T15:08:06.495Z,85.93
2018-12-21T15:10:52.389Z,81.83
2018-12-21T15:13:21.152Z,81.93
2018-12-21T15:15:49.959Z,83.03
2018-12-21T15:18:18.700Z,83.67
2018-12-21T15:20:47.354Z,82.10
2018-12-21T15:23:16.132Z,91.00
2018-12-21T15:25:46.154Z,83.23
2018-12-21T15:28:15.452Z,82.50
2018-12-21T15:30:44.183Z,87.03
2018-12-21T15:33:12.966Z,84.10
2018-12-21T15:35:41.843Z,92.23
2018-12-21T15:38:10.614Z,85.10
2018-12-21T15:40:39.335Z,89.50
2018-12-21T15:43:08.066Z,86.87
2018-12-21T15:45:36.761Z,90.27
2018-12-21T15:48:05.538Z,87.80
2018-12-21T15:50:34.269Z,79.23
2018-12-21T15:53:03.147Z,73.23
2018-12-21T15:55:31.918Z,74.60
2018-12-21T15:58:00.735Z,68.93
2018-12-21T16:00:29.523Z,69.53
2018-12-21T16:02:59.335Z,68.57
2018-12-21T16:05:28.129Z,67.40
2018-12-21T16:07:56.830Z,72.43
2018-12-21T16:10:25.607Z,73.00
2018-12-21T16:12:54.379Z,76.90
2018-12-21T16:15:23.236Z,76.13
2018-12-21T16:17:52.058Z,73.47
2018-12-21T16:20:20.869Z,71.37
2018-12-21T16:22:49.653Z,77.13
2018-12-21T16:25:18.425Z,68.63
2018-12-21T16:27:47.156Z,73.10
2018-12-21T16:30:16.002Z,70.80
2018-12-21T16:32:44.772Z,71.47
2018-12-21T16:35:13.802Z,73.30
2018-12-21T16:37:42.658Z,71.50
2018-12-21T16:40:12.023Z,80.57
2018-12-21T16:42:40.774Z,84.03
2018-12-21T16:45:11.364Z,82.50
2018-12-21T16:47:40.154Z,85.17
2018-12-21T16:50:12.941Z,86.33
2018-12-21T16:52:41.697Z,86.27
2018-12-21T16:55:10.558Z,80.33
2018-12-21T16:57:39.499Z,83.97
2018-12-21T17:00:13.838Z,81.13
2018-12-21T17:02:42.602Z,83.13
2018-12-21T17:05:11.858Z,81.20
2018-12-21T17:07:40.530Z,85.60
2018-12-21T17:10:18.690Z,87.10
2018-12-21T17:12:47.259Z,78.60
2018-12-21T17:15:16.090Z,79.27
2018-12-21T17:17:44.812Z,82.40
2018-12-21T17:20:13.542Z,84.13
2018-12-21T17:22:42.289Z,83.53
2018-12-21T17:25:13.849Z,82.37
2018-12-21T17:27:42.683Z,77.50
2018-12-21T17:30:12.761Z,81.80
2018-12-21T17:32:41.634Z,84.57
2018-12-21T17:35:11.046Z,84.90
2018-12-21T17:37:40.327Z,84.03
2018-12-21T17:40:10.847Z,81.83
2018-12-21T17:42:39.607Z,84.33
2018-12-21T17:45:10.669Z,80.03
2018-12-21T17:47:39.450Z,80.20
2018-12-21T17:50:10.606Z,82.37
2018-12-21T17:52:39.484Z,81.83
2018-12-21T17:55:09.733Z,80.27
2018-12-21T17:57:38.856Z,84.57
2018-12-21T18:00:17.865Z,83.77
2018-12-21T18:02:50.260Z,79.30
2018-12-21T18:05:19.227Z,77.27
2018-12-21T18:07:47.971Z,85.17
2018-12-21T18:10:16.961Z,87.17
2018-12-21T18:12:45.891Z,88.20
2018-12-21T18:15:14.666Z,84.10
2018-12-21T18:17:43.492Z,95.70
2018-12-21T18:20:13.166Z,96.23
2018-12-21T18:22:42.758Z,101.53
2018-12-21T18:25:17.932Z,101.97
2018-12-21T18:27:50.096Z,101.63
2018-12-21T18:30:23.542Z,102.57
2018-12-21T18:32:52.742Z,105.13
2018-12-21T18:35:22.310Z,103.43
2018-12-21T18:37:56.008Z,98.33
2018-12-21T18:40:24.765Z,106.50
2018-12-21T18:42:53.665Z,106.60
2018-12-21T18:45:23.121Z,104.10
2018-12-21T18:47:51.884Z,106.77
2018-12-21T18:50:20.690Z,104.90
2018-12-21T18:52:49.393Z,102.20
2018-12-21T18:55:18.677Z,103.53
2018-12-21T18:57:47.660Z,103.50
2018-12-21T19:00:17.779Z,105.30
2018-12-21T19:02:46.686Z,105.30
2018-12-21T19:05:16.757Z,108.10
2018-12-21T19:07:45.641Z,116.47
2018-12-21T19:10:14.558Z,108.10
2018-12-21T19:12:43.406Z,111.80
2018-12-21T19:15:12.524Z,112.47
2018-12-21T19:17:41.916Z,107.97
2018-12-21T19:20:12.301Z,111.70
2018-12-21T19:22:41.379Z,105.77
2018-12-21T19:25:11.466Z,109.60
2018-12-21T19:27:40.242Z,114.73
2018-12-21T19:30:12.955Z,112.83
2018-12-21T19:32:42.763Z,100.50
2018-12-21T19:35:13.327Z,106.23
2018-12-21T19:37:42.188Z,109.97
2018-12-21T19:40:12.432Z,119.50
2018-12-21T19:42:41.590Z,115.23
2018-12-21T19:45:12.645Z,116.27
2018-12-21T19:47:41.600Z,107.57
2018-12-21T19:50:11.198Z,118.33
2018-12-21T19:52:39.977Z,110.23
2018-12-21T19:55:33.353Z,124.70
2018-12-21T19:58:02.165Z,118.10
2018-12-21T20:00:30.942Z,125.23
2018-12-21T20:02:59.749Z,121.37
2018-12-21T20:05:28.606Z,121.47
2018-12-21T20:07:57.320Z,121.47
2018-12-21T20:10:26.049Z,120.23
2018-12-21T20:12:54.778Z,114.07
2018-12-21T20:15:23.517Z,119.10
2018-12-21T20:17:52.227Z,120.70
2018-12-21T20:20:21.004Z,113.23
2018-12-21T20:22:50.160Z,111.93
2018-12-21T20:25:19.084Z,113.30
2018-12-21T20:27:48.073Z,116.93
2018-12-21T20:30:19.180Z,111.37
2018-12-21T20:32:47.847Z,103.33
2018-12-21T20:35:16.662Z,109.50
2018-12-21T20:37:45.447Z,123.80
2018-12-21T20:40:15.351Z,124.17
2018-12-21T20:45:18.539Z,120.70
2018-12-21T20:47:47.311Z,122.83
2018-12-21T20:50:16.964Z,129.10
2018-12-21T20:52:45.689Z,123.60
2018-12-21T20:55:14.546Z,122.10
2018-12-21T20:57:45.390Z,119.63
2018-12-21T21:00:16.841Z,116.87
2018-12-21T21:02:45.614Z,118.23
2018-12-21T21:05:14.456Z,111.37
2018-12-21T21:07:43.202Z,114.20
2018-12-21T21:10:13.238Z,112.67
2018-12-21T21:12:42.333Z,109.07
2018-12-21T21:15:12.663Z,114.13
2018-12-21T21:17:41.443Z,111.63
2018-12-21T21:20:12.742Z,110.33
2018-12-21T21:22:41.508Z,115.07
2018-12-21T21:25:10.806Z,106.27
2018-12-21T21:27:39.503Z,106.83
2018-12-21T21:30:15.517Z,101.77
2018-12-21T21:32:44.227Z,107.20
2018-12-21T21:35:13.131Z,105.90
2018-12-21T21:37:42.672Z,109.33
2018-12-21T21:40:19.357Z,106.23
2018-12-21T21:42:57.183Z,113.00
2018-12-21T21:45:19.779Z,107.97
2018-12-21T21:47:48.759Z,103.67
2018-12-21T21:50:17.449Z,102.13
2018-12-21T21:52:46.227Z,99.53
2018-12-21T21:55:14.975Z,104.53
2018-12-21T21:57:43.779Z,104.90
2018-12-21T22:00:15.117Z,103.60
2018-12-21T22:02:43.918Z,104.53
2018-12-21T22:05:12.777Z,104.90
2018-12-21T22:07:41.500Z,114.00
2018-12-21T22:10:11.292Z,108.63
2018-12-21T22:12:39.997Z,103.70
2018-12-21T22:15:10.544Z,107.87
2018-12-21T22:17:39.297Z,108.97
2018-12-21T22:20:10.817Z,105.33
2018-12-21T22:22:39.623Z,106.23
2018-12-21T22:25:08.419Z,114.00
2018-12-21T22:27:37.229Z,103.73
2018-12-21T22:30:11.699Z,100.90
2018-12-21T22:32:40.466Z,103.23
2018-12-21T22:35:09.365Z,107.37
2018-12-21T22:37:38.202Z,104.20
2018-12-21T22:40:08.387Z,102.97
2018-12-21T22:42:37.237Z,102.63
2018-12-21T22:45:07.178Z,102.10
2018-12-21T22:47:36.022Z,101.17
2018-12-21T22:50:05.657Z,99.63
2018-12-21T22:52:34.440Z,102.30
2018-12-21T22:55:03.261Z,97.40
2018-12-21T22:57:32.192Z,98.40
2018-12-21T23:00:00.877Z,96.90
2018-12-21T23:02:30.009Z,96.10
2018-12-21T23:04:58.792Z,93.63
2018-12-21T23:07:27.669Z,94.47
2018-12-21T23:09:56.366Z,100.83
2018-12-21T23:12:25.129Z,110.37
2018-12-21T23:14:53.846Z,110.47
2018-12-21T23:17:22.710Z,105.97
2018-12-21T23:19:51.519Z,103.83
2018-12-21T23:22:20.243Z,96.20
2018-12-21T23:24:49.036Z,97.23
2018-12-21T23:27:17.795Z,102.07
2018-12-21T23:29:46.497Z,108.43
2018-12-21T23:32:15.258Z,102.13
2018-12-21T23:34:44.029Z,93.77
2018-12-21T23:37:12.738Z,95.30
2018-12-21T23:39:41.509Z,99.60
2018-12-21T23:42:10.243Z,98.80
2018-12-21T23:44:38.966Z,95.47
2018-12-21T23:47:07.711Z,94.27
2018-12-21T23:49:36.763Z,100.77
2018-12-21T23:52:05.512Z,92.13
2018-12-21T23:54:34.231Z,91.73
2018-12-21T23:57:03.589Z,96.40
2018-12-21T23:59:32.762Z,87.73
